Terminal Aerodrome Forecast
Issued by NWS Missoula, MT

Home | Current Version | Previous Version | Text Only | Print | Product List | Glossary On
Versions: 1 2 3 4 5 6 7 8 9 10 11 12
000
FTUS45 KMSO 201120
TAFGPI
TAF
KGPI 201120Z 2012/2112 VRB05KT P6SM SKC
     FM202000 21012G20KT P6SM SCT080
     FM210300 18006KT P6SM SKC=

USA.gov is the U.S. government's official web portal to all federal, state and local government web resources and services.